createdAt,value
2017-06-30T00:00:27.168Z,87.01
2017-06-30T00:02:28.626Z,86.91
2017-06-30T00:04:30.019Z,87.01
2017-06-30T00:06:31.445Z,86.81
2017-06-30T00:08:32.876Z,86.91
2017-06-30T00:10:34.310Z,87.01
2017-06-30T00:12:35.738Z,87.10
2017-06-30T00:14:37.165Z,86.72
2017-06-30T00:16:38.593Z,87.01
2017-06-30T00:18:40.020Z,87.19
2017-06-30T00:20:41.443Z,86.91
2017-06-30T00:22:42.936Z,87.15
2017-06-30T00:24:44.363Z,86.96
2017-06-30T00:26:45.797Z,86.96
2017-06-30T00:28:47.265Z,87.35
2017-06-30T00:30:48.685Z,87.15
2017-06-30T00:32:50.108Z,86.96
2017-06-30T00:34:51.535Z,87.05
2017-06-30T00:36:52.979Z,87.25
2017-06-30T00:38:54.491Z,87.25
2017-06-30T00:40:55.954Z,87.73
2017-06-30T00:42:57.444Z,87.05
2017-06-30T00:44:58.924Z,87.15
2017-06-30T00:47:00.428Z,86.68
2017-06-30T00:49:01.888Z,86.87
2017-06-30T00:51:03.332Z,86.77
2017-06-30T00:53:04.770Z,86.77
2017-06-30T00:55:06.196Z,86.68
2017-06-30T00:57:07.834Z,86.24
2017-06-30T00:59:09.283Z,86.19
2017-06-30T01:01:10.709Z,86.29
2017-06-30T01:03:12.135Z,86.00
2017-06-30T01:05:13.560Z,86.00
2017-06-30T01:07:15.001Z,86.48
2017-06-30T01:09:16.426Z,85.91
2017-06-30T01:11:17.856Z,86.10
2017-06-30T01:13:19.282Z,86.10
2017-06-30T01:15:20.705Z,85.57
2017-06-30T01:17:22.133Z,85.08
2017-06-30T01:19:23.559Z,85.57
2017-06-30T01:21:24.990Z,85.08
2017-06-30T01:23:26.418Z,84.60
2017-06-30T01:25:27.846Z,84.31
2017-06-30T01:27:29.275Z,84.31
2017-06-30T01:29:30.698Z,84.12
2017-06-30T01:31:32.126Z,83.74
2017-06-30T01:33:33.560Z,83.54
2017-06-30T01:35:34.985Z,83.54
2017-06-30T01:37:36.414Z,83.16
2017-06-30T01:39:37.842Z,83.36
2017-06-30T01:41:39.268Z,83.07
2017-06-30T01:43:40.695Z,83.36
2017-06-30T01:45:42.123Z,83.26
2017-06-30T01:47:43.550Z,84.03
2017-06-30T01:49:44.976Z,83.64
2017-06-30T01:51:46.405Z,83.54
2017-06-30T01:53:47.836Z,83.16
2017-06-30T01:55:49.259Z,82.97
2017-06-30T01:57:50.687Z,83.07
2017-06-30T01:59:52.114Z,82.97
2017-06-30T02:01:53.541Z,82.97
2017-06-30T02:03:54.970Z,82.68
2017-06-30T02:05:56.398Z,82.40
2017-06-30T02:07:57.889Z,82.49
2017-06-30T02:09:59.286Z,82.68
2017-06-30T02:12:00.713Z,82.87
2017-06-30T02:14:02.140Z,83.36
2017-06-30T02:16:03.568Z,83.54
2017-06-30T02:18:04.991Z,83.54
2017-06-30T02:20:06.422Z,83.12
2017-06-30T02:22:07.847Z,83.36
2017-06-30T02:24:09.276Z,83.26
2017-06-30T02:26:10.704Z,82.49
2017-06-30T02:28:12.144Z,82.97
2017-06-30T02:30:13.573Z,83.16
2017-06-30T02:32:15.001Z,82.78
2017-06-30T02:34:16.430Z,83.07
2017-06-30T02:36:17.857Z,83.36
2017-06-30T02:38:19.288Z,83.26
2017-06-30T02:40:20.719Z,83.16
2017-06-30T02:42:22.145Z,83.45
2017-06-30T02:44:23.575Z,83.31
2017-06-30T02:46:25.002Z,83.64
2017-06-30T02:48:26.430Z,83.41
2017-06-30T02:50:27.858Z,83.60
2017-06-30T02:52:29.328Z,83.98
2017-06-30T02:54:30.742Z,84.47
2017-06-30T02:56:32.168Z,84.56
2017-06-30T02:58:33.600Z,85.14
2017-06-30T03:00:35.069Z,84.66
2017-06-30T03:02:36.493Z,85.04
2017-06-30T03:04:37.920Z,85.52
2017-06-30T03:06:39.343Z,85.28
2017-06-30T03:08:40.770Z,85.77
2017-06-30T03:10:42.197Z,85.67
2017-06-30T03:12:43.625Z,85.86
2017-06-30T03:14:45.055Z,85.77
2017-06-30T03:16:46.494Z,85.86
2017-06-30T03:18:47.926Z,85.81
2017-06-30T03:20:49.358Z,85.42
2017-06-30T03:22:50.781Z,85.96
2017-06-30T03:24:52.213Z,85.77
2017-06-30T03:26:53.637Z,86.00
2017-06-30T03:28:55.082Z,86.34
2017-06-30T03:30:56.541Z,86.05
2017-06-30T03:32:57.971Z,86.44
2017-06-30T03:34:59.398Z,86.34
2017-06-30T03:37:00.826Z,86.44
2017-06-30T03:39:02.254Z,85.86
2017-06-30T03:41:03.683Z,86.25
2017-06-30T03:43:05.109Z,86.34
2017-06-30T03:45:06.533Z,86.54
2017-06-30T03:47:07.961Z,86.63
2017-06-30T03:49:09.389Z,86.72
2017-06-30T03:51:10.818Z,86.72
2017-06-30T03:53:12.245Z,86.72
2017-06-30T03:55:13.671Z,86.63
2017-06-30T03:57:15.098Z,86.44
2017-06-30T03:59:16.527Z,85.48
2017-06-30T04:01:17.958Z,86.34
2017-06-30T04:03:19.385Z,85.96
2017-06-30T04:05:20.816Z,85.96
2017-06-30T04:07:22.244Z,85.67
2017-06-30T04:09:23.673Z,85.38
2017-06-30T04:11:25.103Z,85.38
2017-06-30T04:13:26.533Z,85.28
2017-06-30T04:15:27.961Z,85.19
2017-06-30T04:17:29.392Z,85.77
2017-06-30T04:19:30.831Z,85.00
2017-06-30T04:21:32.258Z,85.00
2017-06-30T04:23:33.761Z,85.28
2017-06-30T04:25:35.186Z,85.58
2017-06-30T04:27:36.694Z,85.96
2017-06-30T04:29:38.122Z,85.86
2017-06-30T04:31:39.555Z,85.28
2017-06-30T04:33:40.986Z,85.42
2017-06-30T04:35:42.417Z,85.28
2017-06-30T04:37:43.848Z,85.10
2017-06-30T04:39:45.292Z,84.91
2017-06-30T04:41:46.834Z,84.81
2017-06-30T04:43:48.279Z,85.04
2017-06-30T04:45:49.710Z,85.33
2017-06-30T04:47:51.137Z,85.42
2017-06-30T04:49:52.567Z,85.10
2017-06-30T04:51:54.000Z,85.28
2017-06-30T04:53:55.470Z,85.58
2017-06-30T04:55:56.892Z,85.38
2017-06-30T04:57:58.325Z,85.52
2017-06-30T04:59:59.758Z,85.81
2017-06-30T05:02:01.188Z,84.75
2017-06-30T05:04:02.618Z,85.52
2017-06-30T05:06:04.045Z,84.75
2017-06-30T05:08:05.478Z,85.24
2017-06-30T05:10:06.908Z,84.56
2017-06-30T05:12:08.339Z,84.95
2017-06-30T05:14:09.763Z,85.33
2017-06-30T05:16:11.197Z,85.14
2017-06-30T05:18:12.646Z,85.04
2017-06-30T05:20:14.078Z,84.95
2017-06-30T05:22:15.532Z,84.95
2017-06-30T05:24:16.955Z,85.04
2017-06-30T05:26:18.380Z,84.27
2017-06-30T05:28:19.807Z,84.08
2017-06-30T05:30:21.248Z,84.37
2017-06-30T05:32:22.679Z,84.27
2017-06-30T05:34:24.116Z,84.66
2017-06-30T05:36:25.544Z,84.03
2017-06-30T05:38:26.976Z,83.84
2017-06-30T05:40:28.407Z,83.64
2017-06-30T05:42:29.839Z,82.68
2017-06-30T05:44:31.267Z,82.10
2017-06-30T05:46:32.700Z,81.92
2017-06-30T05:48:34.130Z,81.82
2017-06-30T05:50:35.583Z,81.43
2017-06-30T05:52:37.017Z,81.05
2017-06-30T05:54:38.519Z,81.24
2017-06-30T05:56:39.976Z,82.07
2017-06-30T05:58:41.411Z,82.68
2017-06-30T06:00:42.844Z,81.34
2017-06-30T06:02:44.276Z,80.86
2017-06-30T06:04:45.708Z,80.86
2017-06-30T06:06:47.138Z,80.86
2017-06-30T06:08:48.568Z,80.57
2017-06-30T06:10:50.006Z,80.09
2017-06-30T06:12:51.435Z,81.24
2017-06-30T06:14:52.863Z,80.96
2017-06-30T06:16:54.315Z,81.01
2017-06-30T06:18:55.746Z,81.20
2017-06-30T06:20:57.178Z,81.92
2017-06-30T06:22:58.607Z,81.40
2017-06-30T06:25:00.037Z,81.01
2017-06-30T06:27:01.471Z,81.59
2017-06-30T06:29:02.897Z,81.40
2017-06-30T06:31:04.342Z,81.34
2017-06-30T06:33:05.783Z,81.78
2017-06-30T06:35:07.259Z,81.82
2017-06-30T06:37:08.717Z,81.34
2017-06-30T06:39:10.151Z,80.96
2017-06-30T06:41:11.580Z,79.71
2017-06-30T06:43:13.012Z,78.94
2017-06-30T06:45:14.439Z,79.80
2017-06-30T06:47:15.873Z,80.09
2017-06-30T06:49:17.317Z,78.98
2017-06-30T06:51:18.747Z,79.75
2017-06-30T06:53:20.179Z,79.27
2017-06-30T06:55:21.614Z,78.98
2017-06-30T06:57:23.045Z,79.07
2017-06-30T06:59:24.479Z,80.04
2017-06-30T07:01:25.913Z,79.36
2017-06-30T07:03:27.347Z,78.69
2017-06-30T07:05:28.778Z,79.65
2017-06-30T07:07:30.214Z,78.59
2017-06-30T07:09:31.648Z,78.59
2017-06-30T07:11:33.086Z,78.59
2017-06-30T07:13:34.519Z,79.90
2017-06-30T07:15:35.951Z,79.52
2017-06-30T07:17:37.381Z,80.47
2017-06-30T07:19:38.813Z,79.03
2017-06-30T07:21:40.237Z,79.84
2017-06-30T07:23:41.673Z,79.17
2017-06-30T07:25:43.106Z,78.40
2017-06-30T07:27:45.188Z,78.40
2017-06-30T07:29:46.696Z,79.75
2017-06-30T07:31:48.130Z,78.02
2017-06-30T07:33:49.559Z,78.69
2017-06-30T07:35:50.992Z,78.15
2017-06-30T07:37:52.422Z,77.67
2017-06-30T07:39:53.862Z,77.48
2017-06-30T07:41:55.296Z,78.53
2017-06-30T07:43:56.961Z,76.42
2017-06-30T07:45:58.392Z,77.73
2017-06-30T07:47:59.825Z,78.40
2017-06-30T07:50:01.254Z,78.40
2017-06-30T07:52:02.684Z,78.88
2017-06-30T07:54:04.116Z,78.02
2017-06-30T07:56:05.549Z,77.83
2017-06-30T07:58:06.979Z,77.92
2017-06-30T08:00:08.413Z,77.92
2017-06-30T08:02:09.844Z,77.34
2017-06-30T08:04:11.280Z,77.53
2017-06-30T08:06:12.707Z,78.40
2017-06-30T08:08:14.140Z,78.40
2017-06-30T08:10:15.568Z,78.94
2017-06-30T08:12:17.004Z,78.94
2017-06-30T08:14:18.433Z,79.71
2017-06-30T08:16:19.862Z,79.22
2017-06-30T08:18:21.292Z,79.80
2017-06-30T08:20:22.727Z,79.52
2017-06-30T08:22:24.155Z,79.32
2017-06-30T08:24:25.597Z,79.61
2017-06-30T08:26:27.096Z,79.61
2017-06-30T08:28:28.565Z,79.42
2017-06-30T08:30:30.011Z,80.19
2017-06-30T08:32:31.492Z,80.66
2017-06-30T08:34:32.999Z,80.19
2017-06-30T08:36:34.454Z,78.84
2017-06-30T08:38:35.924Z,79.61
2017-06-30T08:40:37.403Z,80.19
2017-06-30T08:42:38.886Z,79.52
2017-06-30T08:44:40.394Z,79.75
2017-06-30T08:46:41.831Z,78.50
2017-06-30T08:48:43.324Z,79.17
2017-06-30T08:50:44.793Z,78.21
2017-06-30T08:52:46.245Z,78.69
2017-06-30T08:54:47.711Z,79.36
2017-06-30T08:56:49.214Z,78.73
2017-06-30T08:58:50.722Z,78.92
2017-06-30T09:00:52.161Z,79.60
2017-06-30T09:02:53.656Z,78.15
2017-06-30T09:04:55.158Z,78.92
2017-06-30T09:06:56.651Z,78.83
2017-06-30T09:08:58.157Z,77.04
2017-06-30T09:10:59.599Z,78.53
2017-06-30T09:13:01.124Z,77.90
2017-06-30T09:15:02.635Z,77.38
2017-06-30T09:17:04.085Z,77.96
2017-06-30T09:19:05.583Z,79.11
2017-06-30T09:21:07.039Z,77.81
2017-06-30T09:23:08.544Z,77.61
2017-06-30T09:25:09.969Z,77.81
2017-06-30T09:27:11.404Z,78.28
2017-06-30T09:29:12.841Z,78.13
2017-06-30T09:31:14.275Z,77.26
2017-06-30T09:33:15.704Z,76.15
2017-06-30T09:35:17.147Z,74.41
2017-06-30T09:37:18.579Z,73.84
2017-06-30T09:39:20.015Z,74.41
2017-06-30T09:41:21.450Z,74.32
2017-06-30T09:43:22.875Z,73.46
2017-06-30T09:45:24.320Z,73.55
2017-06-30T09:47:25.755Z,72.88
2017-06-30T09:49:27.192Z,72.11
2017-06-30T09:51:28.627Z,72.59
2017-06-30T09:53:30.058Z,72.59
2017-06-30T09:55:31.494Z,72.59
2017-06-30T09:57:32.927Z,71.53
2017-06-30T09:59:34.362Z,71.62
2017-06-30T10:01:35.795Z,71.81
2017-06-30T10:03:37.232Z,72.11
2017-06-30T10:05:38.688Z,73.07
2017-06-30T10:07:40.162Z,73.16
2017-06-30T10:09:41.608Z,71.43
2017-06-30T10:11:43.164Z,72.59
2017-06-30T10:13:44.617Z,71.81
2017-06-30T10:15:46.187Z,71.81
2017-06-30T10:17:47.653Z,71.59
2017-06-30T10:19:49.133Z,73.03
2017-06-30T10:21:50.600Z,71.81
2017-06-30T10:23:52.074Z,71.43
2017-06-30T10:25:53.523Z,71.34
2017-06-30T10:27:54.995Z,70.95
2017-06-30T10:29:56.475Z,71.04
2017-06-30T10:31:57.918Z,70.86
2017-06-30T10:33:59.411Z,71.04
2017-06-30T10:36:00.874Z,70.28
2017-06-30T10:38:02.374Z,69.99
2017-06-30T10:40:03.827Z,69.51
2017-06-30T10:42:05.360Z,69.22
2017-06-30T10:44:06.802Z,69.51
2017-06-30T10:46:08.286Z,69.35
2017-06-30T10:48:09.778Z,68.48
2017-06-30T10:50:11.270Z,68.74
2017-06-30T10:52:12.801Z,68.84
2017-06-30T10:54:14.321Z,68.74
2017-06-30T10:56:15.768Z,68.77
2017-06-30T10:58:17.233Z,68.38
2017-06-30T11:00:18.689Z,70.60
2017-06-30T11:02:20.219Z,69.09
2017-06-30T11:04:21.668Z,67.36
2017-06-30T11:06:23.098Z,66.78
2017-06-30T11:08:24.536Z,67.46
2017-06-30T11:10:25.965Z,65.43
2017-06-30T11:12:27.404Z,65.14
2017-06-30T11:14:28.839Z,65.33
2017-06-30T11:16:30.278Z,66.52
2017-06-30T11:18:31.713Z,65.43
2017-06-30T11:20:33.151Z,64.02
2017-06-30T11:22:34.583Z,63.24
2017-06-30T11:24:36.018Z,64.31
2017-06-30T11:26:37.456Z,64.69
2017-06-30T11:28:38.889Z,63.44
2017-06-30T11:30:40.329Z,62.86
2017-06-30T11:32:41.764Z,64.50
2017-06-30T11:34:43.205Z,64.95
2017-06-30T11:36:44.640Z,65.53
2017-06-30T11:38:46.078Z,64.47
2017-06-30T11:40:47.552Z,63.21
2017-06-30T11:42:49.063Z,63.24
2017-06-30T11:44:50.542Z,63.15
2017-06-30T11:46:52.004Z,63.95
2017-06-30T11:48:53.465Z,61.54
2017-06-30T11:50:54.923Z,63.79
2017-06-30T11:52:56.365Z,61.60
2017-06-30T11:54:57.847Z,62.28
2017-06-30T11:56:59.327Z,61.15
2017-06-30T11:59:00.876Z,59.99
2017-06-30T12:01:02.334Z,59.22
2017-06-30T12:03:04.050Z,58.35
2017-06-30T12:05:05.526Z,57.77
2017-06-30T12:07:07.010Z,57.19
2017-06-30T12:09:08.544Z,58.54
2017-06-30T12:11:10.021Z,55.65
2017-06-30T12:13:11.533Z,58.83
2017-06-30T12:15:13.032Z,56.90
2017-06-30T12:17:14.468Z,57.79
2017-06-30T12:19:15.907Z,57.99
2017-06-30T12:21:17.346Z,57.38
2017-06-30T12:23:18.782Z,58.45
2017-06-30T12:25:20.223Z,59.70
2017-06-30T12:27:21.659Z,56.73
2017-06-30T12:29:23.097Z,58.28
2017-06-30T12:31:24.538Z,59.02
2017-06-30T12:33:25.981Z,56.99
2017-06-30T12:35:27.419Z,59.51
2017-06-30T12:37:28.858Z,56.29
2017-06-30T12:39:30.297Z,58.90
2017-06-30T12:41:31.735Z,59.96
2017-06-30T12:43:33.178Z,58.77
2017-06-30T12:45:34.637Z,59.74
2017-06-30T12:47:36.141Z,58.80
2017-06-30T12:49:37.572Z,57.90
2017-06-30T12:51:39.012Z,59.19
2017-06-30T12:53:40.450Z,58.61
2017-06-30T12:55:41.890Z,57.84
2017-06-30T12:57:43.328Z,58.77
2017-06-30T12:59:44.768Z,59.25
2017-06-30T13:01:46.337Z,59.93
2017-06-30T13:03:48.943Z,55.68
2017-06-30T13:05:50.410Z,57.71
2017-06-30T13:07:52.158Z,56.65
2017-06-30T13:09:53.565Z,57.71
2017-06-30T13:11:55.098Z,56.48
2017-06-30T13:13:56.650Z,56.77
2017-06-30T13:15:58.101Z,56.29
2017-06-30T13:17:59.544Z,55.45
2017-06-30T13:20:00.993Z,56.10
2017-06-30T13:22:02.421Z,57.06
2017-06-30T13:24:03.858Z,56.96
2017-06-30T13:26:05.301Z,57.35
2017-06-30T13:28:06.735Z,59.28
2017-06-30T13:30:08.177Z,59.00
2017-06-30T13:32:09.611Z,60.28
2017-06-30T13:34:11.050Z,57.67
2017-06-30T13:36:12.499Z,57.93
2017-06-30T13:38:13.934Z,59.25
2017-06-30T13:40:15.372Z,59.35
2017-06-30T13:42:16.816Z,60.89
2017-06-30T13:44:18.257Z,59.64
2017-06-30T13:46:19.693Z,60.73
2017-06-30T13:48:21.132Z,59.00
2017-06-30T13:50:22.569Z,57.64
2017-06-30T13:52:24.006Z,58.22
2017-06-30T13:54:25.446Z,58.03
2017-06-30T13:56:26.912Z,58.80
2017-06-30T13:58:28.352Z,58.22
2017-06-30T14:00:29.782Z,57.74
2017-06-30T14:02:31.225Z,57.64
2017-06-30T14:04:32.661Z,57.16
2017-06-30T14:06:34.095Z,56.74
2017-06-30T14:08:35.551Z,58.00
2017-06-30T14:10:36.990Z,58.87
2017-06-30T14:12:38.428Z,59.52
2017-06-30T14:14:39.867Z,59.64
2017-06-30T14:16:41.313Z,59.93
2017-06-30T14:18:42.750Z,59.06
2017-06-30T14:20:44.226Z,58.97
2017-06-30T14:22:45.670Z,57.42
2017-06-30T14:24:47.106Z,58.87
2017-06-30T14:26:48.545Z,58.12
2017-06-30T14:28:49.986Z,56.96
2017-06-30T14:30:51.422Z,56.84
2017-06-30T14:32:52.855Z,58.03
2017-06-30T14:34:54.293Z,57.06
2017-06-30T14:36:55.733Z,57.35
2017-06-30T14:38:57.175Z,57.71
2017-06-30T14:40:58.612Z,58.77
2017-06-30T14:43:00.051Z,58.48
2017-06-30T14:45:01.488Z,56.56
2017-06-30T14:47:02.934Z,58.39
2017-06-30T14:49:04.371Z,57.81
2017-06-30T14:51:05.807Z,58.10
2017-06-30T14:53:07.249Z,58.58
2017-06-30T14:55:08.687Z,58.61
2017-06-30T14:57:10.139Z,59.48
2017-06-30T14:59:11.579Z,57.54
2017-06-30T15:01:13.012Z,57.54
2017-06-30T15:03:14.446Z,58.93
2017-06-30T15:05:15.889Z,57.96
2017-06-30T15:07:17.338Z,56.96
2017-06-30T15:09:18.783Z,57.74
2017-06-30T15:11:20.260Z,59.28
2017-06-30T15:13:21.704Z,59.48
2017-06-30T15:15:23.138Z,59.00
2017-06-30T15:17:24.574Z,56.29
2017-06-30T15:19:26.012Z,58.61
2017-06-30T15:21:27.447Z,55.62
2017-06-30T15:23:28.888Z,57.35
2017-06-30T15:25:30.324Z,57.84
2017-06-30T15:27:31.764Z,57.35
2017-06-30T15:29:33.199Z,56.29
2017-06-30T15:31:34.643Z,56.68
2017-06-30T15:33:36.079Z,56.87
2017-06-30T15:35:37.513Z,57.35
2017-06-30T15:37:38.953Z,59.00
2017-06-30T15:39:40.388Z,57.06
2017-06-30T15:41:41.822Z,55.62
2017-06-30T15:43:43.275Z,55.59
2017-06-30T15:45:44.712Z,57.45
2017-06-30T15:47:46.148Z,58.12
2017-06-30T15:49:47.593Z,58.51
2017-06-30T15:51:49.059Z,57.93
2017-06-30T15:53:50.540Z,57.45
2017-06-30T15:55:52.007Z,57.54
2017-06-30T15:57:53.525Z,60.83
2017-06-30T15:59:55.003Z,63.05
2017-06-30T16:01:56.469Z,65.14
2017-06-30T16:03:58.011Z,68.23
2017-06-30T16:05:59.496Z,69.35
2017-06-30T16:08:00.961Z,69.84
2017-06-30T16:10:02.397Z,70.32
2017-06-30T16:12:03.841Z,71.25
2017-06-30T16:14:05.353Z,71.83
2017-06-30T16:16:06.835Z,70.86
2017-06-30T16:18:08.333Z,72.21
2017-06-30T16:20:10.023Z,71.92
2017-06-30T16:22:11.725Z,71.54
2017-06-30T16:24:13.612Z,71.73
2017-06-30T16:26:15.107Z,71.89
2017-06-30T16:28:16.597Z,72.21
2017-06-30T16:30:18.086Z,71.50
2017-06-30T16:32:19.632Z,71.60
2017-06-30T16:34:21.170Z,70.54
2017-06-30T16:36:22.603Z,71.22
2017-06-30T16:38:24.147Z,71.50
2017-06-30T16:40:25.588Z,71.12
2017-06-30T16:42:27.077Z,72.14
2017-06-30T16:44:28.629Z,71.76
2017-06-30T16:46:30.147Z,72.43
2017-06-30T16:48:31.831Z,72.88
2017-06-30T16:50:33.561Z,74.13
2017-06-30T16:52:35.013Z,74.03
2017-06-30T16:54:36.540Z,73.94
2017-06-30T16:56:38.280Z,74.90
2017-06-30T16:58:40.047Z,73.84
2017-06-30T17:00:41.732Z,73.94
2017-06-30T17:02:43.892Z,73.55
2017-06-30T17:04:45.391Z,74.51
2017-06-30T17:06:46.877Z,74.76
2017-06-30T17:08:48.349Z,75.54
2017-06-30T17:10:49.862Z,75.73
2017-06-30T17:12:51.508Z,76.21
2017-06-30T17:14:52.988Z,76.31
2017-06-30T17:16:54.484Z,75.82
2017-06-30T17:18:55.951Z,76.11
2017-06-30T17:20:57.385Z,76.01
2017-06-30T17:22:58.886Z,76.26
2017-06-30T17:25:00.315Z,76.59
2017-06-30T17:27:01.752Z,76.65
2017-06-30T17:29:03.180Z,77.23
2017-06-30T17:31:04.614Z,76.94
2017-06-30T17:33:06.044Z,77.42
2017-06-30T17:35:07.471Z,77.61
2017-06-30T17:37:08.911Z,77.81
2017-06-30T17:39:10.343Z,78.09
2017-06-30T17:41:11.773Z,77.81
2017-06-30T17:43:13.214Z,78.00
2017-06-30T17:45:14.653Z,78.38
2017-06-30T17:47:16.086Z,78.48
2017-06-30T17:49:17.520Z,78.00
2017-06-30T17:51:18.957Z,77.13
2017-06-30T17:53:20.394Z,78.38
2017-06-30T17:55:21.824Z,78.28
2017-06-30T17:57:23.258Z,78.48
2017-06-30T17:59:24.691Z,78.38
2017-06-30T18:01:26.125Z,78.58
2017-06-30T18:03:27.542Z,78.38
2017-06-30T18:05:29.013Z,78.00
2017-06-30T18:07:30.445Z,78.00
2017-06-30T18:09:31.879Z,77.51
2017-06-30T18:11:33.311Z,77.42
2017-06-30T18:13:34.743Z,77.13
2017-06-30T18:15:36.176Z,76.07
2017-06-30T18:17:37.667Z,76.56
2017-06-30T18:19:39.100Z,75.98
2017-06-30T18:21:40.536Z,75.98
2017-06-30T18:23:42.013Z,76.56
2017-06-30T18:25:43.469Z,76.46
2017-06-30T18:27:44.901Z,76.26
2017-06-30T18:29:46.329Z,76.56
2017-06-30T18:31:47.761Z,76.81
2017-06-30T18:33:49.193Z,77.19
2017-06-30T18:35:50.622Z,77.13
2017-06-30T18:37:52.055Z,76.84
2017-06-30T18:39:53.487Z,76.36
2017-06-30T18:41:54.925Z,75.98
2017-06-30T18:43:56.357Z,75.59
2017-06-30T18:45:57.786Z,75.88
2017-06-30T18:47:59.219Z,76.26
2017-06-30T18:50:00.653Z,75.31
2017-06-30T18:52:02.083Z,75.69
2017-06-30T18:54:03.513Z,76.36
2017-06-30T18:56:04.947Z,76.26
2017-06-30T18:58:06.377Z,76.14
2017-06-30T19:00:07.804Z,76.56
2017-06-30T19:02:09.240Z,76.90
2017-06-30T19:04:10.719Z,77.00
2017-06-30T19:06:12.135Z,77.38
2017-06-30T19:08:13.569Z,76.71
2017-06-30T19:10:15.005Z,76.42
2017-06-30T19:12:16.434Z,76.65
2017-06-30T19:14:17.870Z,76.36
2017-06-30T19:16:19.298Z,76.61
2017-06-30T19:18:20.727Z,77.00
2017-06-30T19:20:22.157Z,77.19
2017-06-30T19:22:23.593Z,77.48
2017-06-30T19:24:25.029Z,77.13
2017-06-30T19:26:26.460Z,77.67
2017-06-30T19:28:27.892Z,78.06
2017-06-30T19:30:29.325Z,78.00
2017-06-30T19:32:30.759Z,77.61
2017-06-30T19:34:32.186Z,76.94
2017-06-30T19:36:33.622Z,76.65
2017-06-30T19:38:35.055Z,76.11
2017-06-30T19:40:36.518Z,75.88
2017-06-30T19:42:37.946Z,76.59
2017-06-30T19:44:39.385Z,76.01
2017-06-30T19:46:40.811Z,75.79
2017-06-30T19:48:42.240Z,75.73
2017-06-30T19:50:43.674Z,75.40
2017-06-30T19:52:45.131Z,75.98
2017-06-30T19:54:46.541Z,75.88
2017-06-30T19:56:48.112Z,75.63
2017-06-30T19:58:49.587Z,76.11
2017-06-30T20:00:51.034Z,76.07
2017-06-30T20:02:52.463Z,75.59
2017-06-30T20:04:53.888Z,75.15
2017-06-30T20:06:55.322Z,75.73
2017-06-30T20:08:56.753Z,75.73
2017-06-30T20:10:58.197Z,75.73
2017-06-30T20:12:59.624Z,75.15
2017-06-30T20:15:01.053Z,74.86
2017-06-30T20:17:02.483Z,75.24
2017-06-30T20:19:03.914Z,75.15
2017-06-30T20:21:05.342Z,75.40
2017-06-30T20:23:06.803Z,76.07
2017-06-30T20:25:08.238Z,75.88
2017-06-30T20:27:09.663Z,75.98
2017-06-30T20:29:11.089Z,75.73
2017-06-30T20:31:13.058Z,75.44
2017-06-30T20:33:14.490Z,76.26
2017-06-30T20:35:15.922Z,76.46
2017-06-30T20:37:17.357Z,76.56
2017-06-30T20:39:18.783Z,77.19
2017-06-30T20:41:20.211Z,77.48
2017-06-30T20:43:21.645Z,77.76
2017-06-30T20:45:23.085Z,77.13
2017-06-30T20:47:24.518Z,76.94
2017-06-30T20:49:25.950Z,77.67
2017-06-30T20:51:27.386Z,77.81
2017-06-30T20:53:28.824Z,77.90
2017-06-30T20:55:30.356Z,77.38
2017-06-30T20:57:31.777Z,77.96
2017-06-30T20:59:33.218Z,77.48
2017-06-30T21:01:34.625Z,77.86
2017-06-30T21:03:36.075Z,78.44
2017-06-30T21:05:37.504Z,78.63
2017-06-30T21:07:38.941Z,79.11
2017-06-30T21:09:40.458Z,79.30
2017-06-30T21:11:41.966Z,78.92
2017-06-30T21:13:43.401Z,79.84
2017-06-30T21:15:45.039Z,79.84
2017-06-30T21:17:46.469Z,80.04
2017-06-30T21:19:47.902Z,80.04
2017-06-30T21:21:49.379Z,80.51
2017-06-30T21:23:50.808Z,79.88
2017-06-30T21:25:52.278Z,79.79
2017-06-30T21:27:53.707Z,79.60
2017-06-30T21:29:55.144Z,80.04
2017-06-30T21:31:57.653Z,80.42
2017-06-30T21:33:58.920Z,80.55
2017-06-30T21:36:00.359Z,80.94
2017-06-30T21:38:01.830Z,80.84
2017-06-30T21:40:03.261Z,81.23
2017-06-30T21:42:04.705Z,81.42
2017-06-30T21:44:06.126Z,81.81
2017-06-30T21:46:07.560Z,81.76
2017-06-30T21:48:08.990Z,83.01
2017-06-30T21:50:10.419Z,82.73
2017-06-30T21:52:11.854Z,82.53
2017-06-30T21:54:13.284Z,83.40
2017-06-30T21:56:14.725Z,84.07
2017-06-30T21:58:16.155Z,84.07
2017-06-30T22:00:17.611Z,83.78
2017-06-30T22:02:19.070Z,83.45
2017-06-30T22:04:20.524Z,83.07
2017-06-30T22:06:22.062Z,83.16
2017-06-30T22:08:23.496Z,83.07
2017-06-30T22:10:24.936Z,83.07
2017-06-30T22:12:26.421Z,82.78
2017-06-30T22:14:27.932Z,82.59
2017-06-30T22:16:29.521Z,82.87
2017-06-30T22:18:30.978Z,82.78
2017-06-30T22:20:32.421Z,82.49
2017-06-30T22:22:33.854Z,82.78
2017-06-30T22:24:35.292Z,83.64
2017-06-30T22:26:36.778Z,83.26
2017-06-30T22:28:38.207Z,82.73
2017-06-30T22:30:39.642Z,82.73
2017-06-30T22:32:41.070Z,82.53
2017-06-30T22:34:42.500Z,82.15
2017-06-30T22:36:43.933Z,82.43
2017-06-30T22:38:45.366Z,82.43
2017-06-30T22:40:46.793Z,82.24
2017-06-30T22:42:48.219Z,82.73
2017-06-30T22:44:49.650Z,82.73
2017-06-30T22:46:51.075Z,82.24
2017-06-30T22:48:52.508Z,82.82
2017-06-30T22:50:53.935Z,82.82
2017-06-30T22:52:55.376Z,83.45
2017-06-30T22:54:56.795Z,83.36
2017-06-30T22:56:58.231Z,84.03
2017-06-30T22:58:59.967Z,84.22
2017-06-30T23:01:01.488Z,85.08
2017-06-30T23:03:03.119Z,85.28
2017-06-30T23:05:04.956Z,85.24
2017-06-30T23:07:06.422Z,85.47
2017-06-30T23:09:07.846Z,86.05
2017-06-30T23:11:09.298Z,85.66
2017-06-30T23:13:10.727Z,86.05
2017-06-30T23:15:12.153Z,85.95
2017-06-30T23:17:13.590Z,86.24
2017-06-30T23:19:15.025Z,86.05
2017-06-30T23:21:16.455Z,85.37
2017-06-30T23:23:17.885Z,86.05
2017-06-30T23:25:19.319Z,86.14
2017-06-30T23:27:20.749Z,86.72
2017-06-30T23:29:22.184Z,85.95
2017-06-30T23:31:23.606Z,86.05
2017-06-30T23:33:25.036Z,86.05
2017-06-30T23:35:26.473Z,86.81
2017-06-30T23:37:27.903Z,87.15
2017-06-30T23:39:29.328Z,86.87
2017-06-30T23:41:30.762Z,86.87
2017-06-30T23:43:32.193Z,87.35
2017-06-30T23:45:33.620Z,87.92
2017-06-30T23:47:35.048Z,88.02
2017-06-30T23:49:36.483Z,87.73
2017-06-30T23:51:37.901Z,87.63
2017-06-30T23:53:39.332Z,87.63
2017-06-30T23:55:40.764Z,88.40
2017-06-30T23:57:42.199Z,88.55
2017-06-30T23:59:43.628Z,88.84
